sensor_id;sensor_type;location;lat;lon;timestamp;temperature;humidity
9497;DHT22;4786;51.270;4.456;2022-07-23T00:02:13;17.90;99.90
9497;DHT22;4786;51.270;4.456;2022-07-23T00:04:38;17.90;99.90
9497;DHT22;4786;51.270;4.456;2022-07-23T00:07:04;17.90;99.90
9497;DHT22;4786;51.270;4.456;2022-07-23T00:09:31;17.90;99.90
9497;DHT22;4786;51.270;4.456;2022-07-23T00:11:57;17.90;99.90
9497;DHT22;4786;51.270;4.456;2022-07-23T00:14:24;17.90;99.90
9497;DHT22;4786;51.270;4.456;2022-07-23T00:16:50;17.90;99.90
9497;DHT22;4786;51.270;4.456;2022-07-23T00:19:16;17.70;99.90
9497;DHT22;4786;51.270;4.456;2022-07-23T00:21:42;17.70;99.90
9497;DHT22;4786;51.270;4.456;2022-07-23T00:24:08;17.70;99.90
9497;DHT22;4786;51.270;4.456;2022-07-23T00:26:33;17.60;99.90
9497;DHT22;4786;51.270;4.456;2022-07-23T00:29:00;17.60;99.90
9497;DHT22;4786;51.270;4.456;2022-07-23T00:31:25;17.60;99.90
9497;DHT22;4786;51.270;4.456;2022-07-23T00:33:52;17.50;99.90
9497;DHT22;4786;51.270;4.456;2022-07-23T00:36:22;17.50;99.90
9497;DHT22;4786;51.270;4.456;2022-07-23T00:38:49;17.50;99.90
9497;DHT22;4786;51.270;4.456;2022-07-23T00:41:15;17.50;99.90
9497;DHT22;4786;51.270;4.456;2022-07-23T00:43:40;17.50;99.90
9497;DHT22;4786;51.270;4.456;2022-07-23T00:46:07;17.50;99.90
9497;DHT22;4786;51.270;4.456;2022-07-23T00:48:33;17.50;99.90
9497;DHT22;4786;51.270;4.456;2022-07-23T00:50:58;17.60;99.90
9497;DHT22;4786;51.270;4.456;2022-07-23T00:53:25;17.60;99.90
9497;DHT22;4786;51.270;4.456;2022-07-23T00:55:50;17.50;99.90
9497;DHT22;4786;51.270;4.456;2022-07-23T00:58:17;17.60;99.90
9497;DHT22;4786;51.270;4.456;2022-07-23T01:00:44;17.70;99.90
9497;DHT22;4786;51.270;4.456;2022-07-23T01:03:10;17.60;99.90
9497;DHT22;4786;51.270;4.456;2022-07-23T01:05:36;17.60;99.90
9497;DHT22;4786;51.270;4.456;2022-07-23T01:08:02;17.60;99.90
9497;DHT22;4786;51.270;4.456;2022-07-23T01:10:28;17.60;99.90
9497;DHT22;4786;51.270;4.456;2022-07-23T01:13:08;17.50;99.90
9497;DHT22;4786;51.270;4.456;2022-07-23T01:15:36;17.40;99.90
9497;DHT22;4786;51.270;4.456;2022-07-23T01:18:04;17.40;99.90
9497;DHT22;4786;51.270;4.456;2022-07-23T01:20:31;17.30;99.90
9497;DHT22;4786;51.270;4.456;2022-07-23T01:22:57;17.30;99.90
9497;DHT22;4786;51.270;4.456;2022-07-23T01:25:24;17.20;99.90
9497;DHT22;4786;51.270;4.456;2022-07-23T01:27:52;17.20;99.90
9497;DHT22;4786;51.270;4.456;2022-07-23T01:30:19;17.00;99.90
9497;DHT22;4786;51.270;4.456;2022-07-23T01:32:45;16.90;99.90
9497;DHT22;4786;51.270;4.456;2022-07-23T01:35:12;16.90;99.90
9497;DHT22;4786;51.270;4.456;2022-07-23T01:37:38;16.90;99.90
9497;DHT22;4786;51.270;4.456;2022-07-23T01:40:05;16.90;99.90
9497;DHT22;4786;51.270;4.456;2022-07-23T01:42:32;16.90;99.90
9497;DHT22;4786;51.270;4.456;2022-07-23T01:44:57;16.90;99.90
9497;DHT22;4786;51.270;4.456;2022-07-23T01:47:23;16.90;99.90
9497;DHT22;4786;51.270;4.456;2022-07-23T01:49:50;17.00;99.90
9497;DHT22;4786;51.270;4.456;2022-07-23T01:52:15;16.90;99.90
9497;DHT22;4786;51.270;4.456;2022-07-23T01:54:42;17.10;99.90
9497;DHT22;4786;51.270;4.456;2022-07-23T01:57:08;17.10;99.90
9497;DHT22;4786;51.270;4.456;2022-07-23T01:59:35;17.00;99.90
9497;DHT22;4786;51.270;4.456;2022-07-23T02:02:01;16.90;99.90
9497;DHT22;4786;51.270;4.456;2022-07-23T02:04:29;16.80;99.90
9497;DHT22;4786;51.270;4.456;2022-07-23T02:06:55;16.70;99.90
9497;DHT22;4786;51.270;4.456;2022-07-23T02:09:21;16.60;99.90
9497;DHT22;4786;51.270;4.456;2022-07-23T02:11:47;16.50;99.90
9497;DHT22;4786;51.270;4.456;2022-07-23T02:14:13;16.50;99.90
9497;DHT22;4786;51.270;4.456;2022-07-23T02:16:39;16.50;99.90
9497;DHT22;4786;51.270;4.456;2022-07-23T02:19:05;16.40;99.90
9497;DHT22;4786;51.270;4.456;2022-07-23T02:21:31;16.30;99.90
9497;DHT22;4786;51.270;4.456;2022-07-23T02:23:57;16.40;99.90
9497;DHT22;4786;51.270;4.456;2022-07-23T02:26:22;16.40;99.90
9497;DHT22;4786;51.270;4.456;2022-07-23T02:28:48;16.30;99.90
9497;DHT22;4786;51.270;4.456;2022-07-23T02:31:14;16.40;99.90
9497;DHT22;4786;51.270;4.456;2022-07-23T02:33:40;16.50;99.90
9497;DHT22;4786;51.270;4.456;2022-07-23T02:36:06;16.50;99.90
9497;DHT22;4786;51.270;4.456;2022-07-23T02:38:33;16.50;99.90
9497;DHT22;4786;51.270;4.456;2022-07-23T02:40:59;16.50;99.90
9497;DHT22;4786;51.270;4.456;2022-07-23T02:43:25;16.30;99.90
9497;DHT22;4786;51.270;4.456;2022-07-23T02:45:51;16.10;99.90
9497;DHT22;4786;51.270;4.456;2022-07-23T02:48:17;16.00;99.90
9497;DHT22;4786;51.270;4.456;2022-07-23T02:50:43;15.90;99.90
9497;DHT22;4786;51.270;4.456;2022-07-23T02:53:09;16.00;99.90
9497;DHT22;4786;51.270;4.456;2022-07-23T02:55:35;15.80;99.90
9497;DHT22;4786;51.270;4.456;2022-07-23T02:58:00;15.80;99.90
9497;DHT22;4786;51.270;4.456;2022-07-23T03:00:26;15.80;99.90
9497;DHT22;4786;51.270;4.456;2022-07-23T03:02:52;15.80;99.90
9497;DHT22;4786;51.270;4.456;2022-07-23T03:05:19;15.90;99.90
9497;DHT22;4786;51.270;4.456;2022-07-23T03:07:44;15.90;99.90
9497;DHT22;4786;51.270;4.456;2022-07-23T03:10:10;15.90;99.90
9497;DHT22;4786;51.270;4.456;2022-07-23T03:12:36;15.90;99.90
9497;DHT22;4786;51.270;4.456;2022-07-23T03:15:02;15.80;99.90
9497;DHT22;4786;51.270;4.456;2022-07-23T03:17:28;15.90;99.90
9497;DHT22;4786;51.270;4.456;2022-07-23T03:19:55;16.00;99.90
9497;DHT22;4786;51.270;4.456;2022-07-23T03:22:21;16.10;99.90
9497;DHT22;4786;51.270;4.456;2022-07-23T03:24:46;16.00;99.90
9497;DHT22;4786;51.270;4.456;2022-07-23T03:27:22;15.80;99.90
9497;DHT22;4786;51.270;4.456;2022-07-23T03:29:50;15.80;99.90
9497;DHT22;4786;51.270;4.456;2022-07-23T03:32:17;15.70;99.90
9497;DHT22;4786;51.270;4.456;2022-07-23T03:34:43;15.60;99.90
9497;DHT22;4786;51.270;4.456;2022-07-23T03:37:09;15.50;99.90
9497;DHT22;4786;51.270;4.456;2022-07-23T03:39:35;15.50;99.90
9497;DHT22;4786;51.270;4.456;2022-07-23T03:42:01;15.50;99.90
9497;DHT22;4786;51.270;4.456;2022-07-23T03:44:27;15.50;99.90
9497;DHT22;4786;51.270;4.456;2022-07-23T03:46:53;15.50;99.90
9497;DHT22;4786;51.270;4.456;2022-07-23T03:49:19;15.50;99.90
9497;DHT22;4786;51.270;4.456;2022-07-23T03:51:45;15.50;99.90
9497;DHT22;4786;51.270;4.456;2022-07-23T03:54:11;15.50;99.90
9497;DHT22;4786;51.270;4.456;2022-07-23T03:56:37;15.50;99.90
9497;DHT22;4786;51.270;4.456;2022-07-23T03:59:03;15.50;99.90
9497;DHT22;4786;51.270;4.456;2022-07-23T04:01:29;15.50;99.90
9497;DHT22;4786;51.270;4.456;2022-07-23T04:03:54;15.60;99.90
9497;DHT22;4786;51.270;4.456;2022-07-23T04:06:21;15.70;99.90
9497;DHT22;4786;51.270;4.456;2022-07-23T04:08:47;15.70;99.90
9497;DHT22;4786;51.270;4.456;2022-07-23T04:11:13;15.50;99.90
9497;DHT22;4786;51.270;4.456;2022-07-23T04:13:39;15.50;99.90
9497;DHT22;4786;51.270;4.456;2022-07-23T04:16:06;15.40;99.90
9497;DHT22;4786;51.270;4.456;2022-07-23T04:18:32;15.40;99.90
9497;DHT22;4786;51.270;4.456;2022-07-23T04:20:58;15.50;99.90
9497;DHT22;4786;51.270;4.456;2022-07-23T04:23:24;15.60;99.90
9497;DHT22;4786;51.270;4.456;2022-07-23T04:25:50;15.50;99.90
9497;DHT22;4786;51.270;4.456;2022-07-23T04:28:16;15.60;99.90
9497;DHT22;4786;51.270;4.456;2022-07-23T04:30:41;15.70;99.90
9497;DHT22;4786;51.270;4.456;2022-07-23T04:33:07;15.60;99.90
9497;DHT22;4786;51.270;4.456;2022-07-23T04:35:34;15.50;99.90
9497;DHT22;4786;51.270;4.456;2022-07-23T04:38:00;15.40;99.90
9497;DHT22;4786;51.270;4.456;2022-07-23T04:40:27;15.50;99.90
9497;DHT22;4786;51.270;4.456;2022-07-23T04:42:53;15.50;99.90
9497;DHT22;4786;51.270;4.456;2022-07-23T04:45:18;15.60;99.90
9497;DHT22;4786;51.270;4.456;2022-07-23T04:47:45;15.60;99.90
9497;DHT22;4786;51.270;4.456;2022-07-23T04:50:11;15.70;99.90
9497;DHT22;4786;51.270;4.456;2022-07-23T04:52:37;15.80;99.90
9497;DHT22;4786;51.270;4.456;2022-07-23T04:55:04;15.90;99.90
9497;DHT22;4786;51.270;4.456;2022-07-23T04:57:29;16.00;99.90
9497;DHT22;4786;51.270;4.456;2022-07-23T04:59:55;15.90;99.90
9497;DHT22;4786;51.270;4.456;2022-07-23T05:02:21;15.90;99.90
9497;DHT22;4786;51.270;4.456;2022-07-23T05:04:47;16.00;99.90
9497;DHT22;4786;51.270;4.456;2022-07-23T05:07:13;16.10;99.90
9497;DHT22;4786;51.270;4.456;2022-07-23T05:09:38;16.10;99.90
9497;DHT22;4786;51.270;4.456;2022-07-23T05:12:04;16.20;99.90
9497;DHT22;4786;51.270;4.456;2022-07-23T05:14:31;16.30;99.90
9497;DHT22;4786;51.270;4.456;2022-07-23T05:16:56;16.40;99.90
9497;DHT22;4786;51.270;4.456;2022-07-23T05:19:22;16.50;99.90
9497;DHT22;4786;51.270;4.456;2022-07-23T05:21:48;16.60;99.90
9497;DHT22;4786;51.270;4.456;2022-07-23T05:24:14;17.00;99.90
9497;DHT22;4786;51.270;4.456;2022-07-23T05:26:40;17.70;99.90
9497;DHT22;4786;51.270;4.456;2022-07-23T05:29:06;18.50;99.90
9497;DHT22;4786;51.270;4.456;2022-07-23T05:31:32;19.30;99.90
9497;DHT22;4786;51.270;4.456;2022-07-23T05:33:58;20.10;99.90
9497;DHT22;4786;51.270;4.456;2022-07-23T05:36:24;20.80;99.90
9497;DHT22;4786;51.270;4.456;2022-07-23T05:38:50;22.00;99.90
9497;DHT22;4786;51.270;4.456;2022-07-23T05:41:16;23.00;99.90
9497;DHT22;4786;51.270;4.456;2022-07-23T05:43:42;23.80;99.90
9497;DHT22;4786;51.270;4.456;2022-07-23T05:46:08;24.30;99.90
9497;DHT22;4786;51.270;4.456;2022-07-23T05:48:34;25.00;99.90
9497;DHT22;4786;51.270;4.456;2022-07-23T05:51:00;25.40;99.90
9497;DHT22;4786;51.270;4.456;2022-07-23T05:53:26;25.70;99.90
9497;DHT22;4786;51.270;4.456;2022-07-23T05:55:52;25.10;99.90
9497;DHT22;4786;51.270;4.456;2022-07-23T05:58:17;25.30;99.90
9497;DHT22;4786;51.270;4.456;2022-07-23T06:00:43;25.90;99.90
9497;DHT22;4786;51.270;4.456;2022-07-23T06:03:09;26.40;99.90
9497;DHT22;4786;51.270;4.456;2022-07-23T06:05:35;26.80;99.90
9497;DHT22;4786;51.270;4.456;2022-07-23T06:08:00;27.40;99.90
9497;DHT22;4786;51.270;4.456;2022-07-23T06:10:26;28.00;99.90
9497;DHT22;4786;51.270;4.456;2022-07-23T06:12:52;28.50;99.90
9497;DHT22;4786;51.270;4.456;2022-07-23T06:15:18;29.10;99.90
9497;DHT22;4786;51.270;4.456;2022-07-23T06:17:44;29.60;99.90
9497;DHT22;4786;51.270;4.456;2022-07-23T06:20:11;30.40;99.90
9497;DHT22;4786;51.270;4.456;2022-07-23T06:22:37;30.60;98.10
9497;DHT22;4786;51.270;4.456;2022-07-23T06:25:04;30.80;97.80
9497;DHT22;4786;51.270;4.456;2022-07-23T06:27:29;30.70;96.00
9497;DHT22;4786;51.270;4.456;2022-07-23T06:29:55;30.90;95.70
9497;DHT22;4786;51.270;4.456;2022-07-23T06:32:21;31.00;95.10
9497;DHT22;4786;51.270;4.456;2022-07-23T06:34:47;31.40;93.80
9497;DHT22;4786;51.270;4.456;2022-07-23T06:37:13;31.50;93.50
9497;DHT22;4786;51.270;4.456;2022-07-23T06:39:39;31.90;93.20
9497;DHT22;4786;51.270;4.456;2022-07-23T06:42:05;32.20;92.60
9497;DHT22;4786;51.270;4.456;2022-07-23T06:44:31;32.40;91.60
9497;DHT22;4786;51.270;4.456;2022-07-23T06:46:57;32.70;91.00
9497;DHT22;4786;51.270;4.456;2022-07-23T06:49:23;33.70;90.30
9497;DHT22;4786;51.270;4.456;2022-07-23T06:51:49;33.70;88.70
9497;DHT22;4786;51.270;4.456;2022-07-23T06:54:15;33.40;86.80
9497;DHT22;4786;51.270;4.456;2022-07-23T06:56:41;33.50;84.60
9497;DHT22;4786;51.270;4.456;2022-07-23T06:59:08;33.60;85.30
9497;DHT22;4786;51.270;4.456;2022-07-23T07:01:33;33.30;83.70
9497;DHT22;4786;51.270;4.456;2022-07-23T07:04:00;33.40;86.20
9497;DHT22;4786;51.270;4.456;2022-07-23T07:06:25;33.10;84.40
9497;DHT22;4786;51.270;4.456;2022-07-23T07:08:51;32.90;85.00
9497;DHT22;4786;51.270;4.456;2022-07-23T07:11:17;32.90;83.70
9497;DHT22;4786;51.270;4.456;2022-07-23T07:13:43;32.70;82.10
9497;DHT22;4786;51.270;4.456;2022-07-23T07:16:09;32.60;81.90
9497;DHT22;4786;51.270;4.456;2022-07-23T07:18:35;32.20;82.70
9497;DHT22;4786;51.270;4.456;2022-07-23T07:21:01;32.00;87.80
9497;DHT22;4786;51.270;4.456;2022-07-23T07:23:27;31.90;86.60
9497;DHT22;4786;51.270;4.456;2022-07-23T07:25:53;31.50;88.50
9497;DHT22;4786;51.270;4.456;2022-07-23T07:28:19;31.20;87.10
9497;DHT22;4786;51.270;4.456;2022-07-23T07:30:46;31.30;89.00
9497;DHT22;4786;51.270;4.456;2022-07-23T07:33:11;31.70;89.70
9497;DHT22;4786;51.270;4.456;2022-07-23T07:35:37;31.90;89.50
9497;DHT22;4786;51.270;4.456;2022-07-23T07:38:03;31.80;89.30
9497;DHT22;4786;51.270;4.456;2022-07-23T07:40:29;31.70;90.50
9497;DHT22;4786;51.270;4.456;2022-07-23T07:42:55;31.60;91.00
9497;DHT22;4786;51.270;4.456;2022-07-23T07:45:23;31.40;90.00
9497;DHT22;4786;51.270;4.456;2022-07-23T07:47:49;31.00;89.10
9497;DHT22;4786;51.270;4.456;2022-07-23T07:50:15;30.50;86.80
9497;DHT22;4786;51.270;4.456;2022-07-23T07:52:41;30.30;90.60
9497;DHT22;4786;51.270;4.456;2022-07-23T07:55:09;30.00;90.90
9497;DHT22;4786;51.270;4.456;2022-07-23T07:57:36;29.60;90.90
9497;DHT22;4786;51.270;4.456;2022-07-23T08:00:03;28.70;91.00
9497;DHT22;4786;51.270;4.456;2022-07-23T08:02:29;28.60;92.50
9497;DHT22;4786;51.270;4.456;2022-07-23T08:04:55;28.50;93.60
9497;DHT22;4786;51.270;4.456;2022-07-23T08:07:22;28.40;94.20
9497;DHT22;4786;51.270;4.456;2022-07-23T08:09:49;28.30;94.00
9497;DHT22;4786;51.270;4.456;2022-07-23T08:12:14;28.20;92.80
9497;DHT22;4786;51.270;4.456;2022-07-23T08:14:41;27.90;93.10
9497;DHT22;4786;51.270;4.456;2022-07-23T08:17:06;28.00;93.30
9497;DHT22;4786;51.270;4.456;2022-07-23T08:19:32;28.20;93.40
9497;DHT22;4786;51.270;4.456;2022-07-23T08:21:57;28.30;94.70
9497;DHT22;4786;51.270;4.456;2022-07-23T08:24:23;28.30;94.60
9497;DHT22;4786;51.270;4.456;2022-07-23T08:26:49;28.00;93.80
9497;DHT22;4786;51.270;4.456;2022-07-23T08:29:15;28.10;94.60
9497;DHT22;4786;51.270;4.456;2022-07-23T08:31:41;27.90;92.70
9497;DHT22;4786;51.270;4.456;2022-07-23T08:34:07;27.70;93.20
9497;DHT22;4786;51.270;4.456;2022-07-23T08:36:33;27.60;94.40
9497;DHT22;4786;51.270;4.456;2022-07-23T08:39:00;27.50;94.00
9497;DHT22;4786;51.270;4.456;2022-07-23T08:41:28;27.40;94.10
9497;DHT22;4786;51.270;4.456;2022-07-23T08:43:54;27.40;94.50
9497;DHT22;4786;51.270;4.456;2022-07-23T08:46:20;27.50;96.10
9497;DHT22;4786;51.270;4.456;2022-07-23T08:48:48;27.30;93.90
9497;DHT22;4786;51.270;4.456;2022-07-23T08:51:15;27.20;93.80
9497;DHT22;4786;51.270;4.456;2022-07-23T08:53:41;27.10;94.50
9497;DHT22;4786;51.270;4.456;2022-07-23T08:56:08;27.20;96.20
9497;DHT22;4786;51.270;4.456;2022-07-23T08:58:34;27.30;95.50
9497;DHT22;4786;51.270;4.456;2022-07-23T09:01:00;27.20;94.50
9497;DHT22;4786;51.270;4.456;2022-07-23T09:03:34;27.20;95.30
9497;DHT22;4786;51.270;4.456;2022-07-23T09:06:00;27.30;95.90
9497;DHT22;4786;51.270;4.456;2022-07-23T09:08:39;27.10;94.50
9497;DHT22;4786;51.270;4.456;2022-07-23T09:11:08;26.90;95.80
9497;DHT22;4786;51.270;4.456;2022-07-23T09:18:45;27.10;97.40
9497;DHT22;4786;51.270;4.456;2022-07-23T09:24:02;26.80;97.40
9497;DHT22;4786;51.270;4.456;2022-07-23T09:31:31;27.20;96.40
9497;DHT22;4786;51.270;4.456;2022-07-23T09:34:08;27.40;95.80
9497;DHT22;4786;51.270;4.456;2022-07-23T09:36:34;27.60;96.40
9497;DHT22;4786;51.270;4.456;2022-07-23T09:39:00;27.80;98.30
9497;DHT22;4786;51.270;4.456;2022-07-23T09:41:34;27.90;97.40
9497;DHT22;4786;51.270;4.456;2022-07-23T09:44:11;28.00;96.20
9497;DHT22;4786;51.270;4.456;2022-07-23T09:46:38;28.00;95.10
9497;DHT22;4786;51.270;4.456;2022-07-23T09:49:31;27.90;94.10
9497;DHT22;4786;51.270;4.456;2022-07-23T09:51:59;27.90;95.50
9497;DHT22;4786;51.270;4.456;2022-07-23T09:56:57;28.10;95.80
9497;DHT22;4786;51.270;4.456;2022-07-23T09:59:26;28.10;94.10
9497;DHT22;4786;51.270;4.456;2022-07-23T10:01:54;27.60;93.60
9497;DHT22;4786;51.270;4.456;2022-07-23T10:04:23;27.60;94.10
9497;DHT22;4786;51.270;4.456;2022-07-23T10:06:55;27.80;95.90
9497;DHT22;4786;51.270;4.456;2022-07-23T10:09:29;28.10;95.30
9497;DHT22;4786;51.270;4.456;2022-07-23T10:11:57;28.30;95.10
9497;DHT22;4786;51.270;4.456;2022-07-23T10:14:31;28.30;93.20
9497;DHT22;4786;51.270;4.456;2022-07-23T10:16:58;28.50;93.50
9497;DHT22;4786;51.270;4.456;2022-07-23T10:19:25;28.70;93.40
9497;DHT22;4786;51.270;4.456;2022-07-23T10:22:03;28.60;92.30
9497;DHT22;4786;51.270;4.456;2022-07-23T10:36:03;29.60;91.50
9497;DHT22;4786;51.270;4.456;2022-07-23T10:38:53;29.80;94.40
9497;DHT22;4786;51.270;4.456;2022-07-23T10:41:50;30.00;94.30
9497;DHT22;4786;51.270;4.456;2022-07-23T10:44:19;30.20;92.60
9497;DHT22;4786;51.270;4.456;2022-07-23T10:47:03;30.10;91.90
9497;DHT22;4786;51.270;4.456;2022-07-23T10:49:35;30.20;93.20
9497;DHT22;4786;51.270;4.456;2022-07-23T10:54:55;30.00;88.90
9497;DHT22;4786;51.270;4.456;2022-07-23T10:57:26;29.90;89.30
9497;DHT22;4786;51.270;4.456;2022-07-23T11:02:50;29.90;89.30
9497;DHT22;4786;51.270;4.456;2022-07-23T11:05:23;30.00;90.20
9497;DHT22;4786;51.270;4.456;2022-07-23T11:26:50;29.80;88.40
9497;DHT22;4786;51.270;4.456;2022-07-23T11:32:19;30.00;86.50
9497;DHT22;4786;51.270;4.456;2022-07-23T11:34:46;30.00;88.70
9497;DHT22;4786;51.270;4.456;2022-07-23T11:37:31;30.10;88.70
9497;DHT22;4786;51.270;4.456;2022-07-23T11:39:58;30.20;90.30
9497;DHT22;4786;51.270;4.456;2022-07-23T11:42:24;30.30;90.30
9497;DHT22;4786;51.270;4.456;2022-07-23T11:44:51;30.30;89.70
9497;DHT22;4786;51.270;4.456;2022-07-23T11:47:23;30.20;85.00
9497;DHT22;4786;51.270;4.456;2022-07-23T11:49:56;30.00;87.80
9497;DHT22;4786;51.270;4.456;2022-07-23T11:52:24;29.80;85.50
9497;DHT22;4786;51.270;4.456;2022-07-23T11:55:02;29.90;85.00
9497;DHT22;4786;51.270;4.456;2022-07-23T11:57:33;29.70;85.50
9497;DHT22;4786;51.270;4.456;2022-07-23T12:00:12;29.60;84.60
9497;DHT22;4786;51.270;4.456;2022-07-23T12:02:44;29.60;84.20
9497;DHT22;4786;51.270;4.456;2022-07-23T12:05:18;29.80;87.20
9497;DHT22;4786;51.270;4.456;2022-07-23T12:07:46;29.80;84.40
9497;DHT22;4786;51.270;4.456;2022-07-23T12:12:48;29.90;82.00
9497;DHT22;4786;51.270;4.456;2022-07-23T12:15:16;29.90;85.90
9497;DHT22;4786;51.270;4.456;2022-07-23T12:17:44;29.80;83.10
9497;DHT22;4786;51.270;4.456;2022-07-23T12:20:14;29.80;83.90
9497;DHT22;4786;51.270;4.456;2022-07-23T12:22:41;29.90;82.60
9497;DHT22;4786;51.270;4.456;2022-07-23T12:25:14;30.00;86.70
9497;DHT22;4786;51.270;4.456;2022-07-23T12:27:40;30.10;81.70
9497;DHT22;4786;51.270;4.456;2022-07-23T12:32:47;30.20;83.90
9497;DHT22;4786;51.270;4.456;2022-07-23T12:35:14;30.20;83.60
9497;DHT22;4786;51.270;4.456;2022-07-23T12:37:42;30.20;81.80
9497;DHT22;4786;51.270;4.456;2022-07-23T12:43:04;30.00;80.10
9497;DHT22;4786;51.270;4.456;2022-07-23T12:51:04;29.80;81.50
9497;DHT22;4786;51.270;4.456;2022-07-23T12:56:11;29.80;83.90
9497;DHT22;4786;51.270;4.456;2022-07-23T12:58:48;30.00;83.10
9497;DHT22;4786;51.270;4.456;2022-07-23T13:06:24;29.80;87.30
9497;DHT22;4786;51.270;4.456;2022-07-23T13:08:50;29.70;89.10
9497;DHT22;4786;51.270;4.456;2022-07-23T13:11:16;29.70;87.50
9497;DHT22;4786;51.270;4.456;2022-07-23T13:13:42;29.50;90.00
9497;DHT22;4786;51.270;4.456;2022-07-23T13:16:08;29.40;87.70
9497;DHT22;4786;51.270;4.456;2022-07-23T13:18:34;29.30;88.10
9497;DHT22;4786;51.270;4.456;2022-07-23T13:21:00;29.20;87.90
9497;DHT22;4786;51.270;4.456;2022-07-23T13:23:26;29.20;89.50
9497;DHT22;4786;51.270;4.456;2022-07-23T13:25:53;29.10;90.80
9497;DHT22;4786;51.270;4.456;2022-07-23T13:28:20;29.10;89.80
9497;DHT22;4786;51.270;4.456;2022-07-23T13:30:48;29.20;87.90
9497;DHT22;4786;51.270;4.456;2022-07-23T13:33:16;29.20;88.80
9497;DHT22;4786;51.270;4.456;2022-07-23T13:35:42;29.20;83.90
9497;DHT22;4786;51.270;4.456;2022-07-23T13:38:08;29.20;82.90
9497;DHT22;4786;51.270;4.456;2022-07-23T13:40:38;29.30;84.30
9497;DHT22;4786;51.270;4.456;2022-07-23T13:43:06;29.40;84.20
9497;DHT22;4786;51.270;4.456;2022-07-23T13:45:33;29.60;90.00
9497;DHT22;4786;51.270;4.456;2022-07-23T13:48:00;29.80;86.50
9497;DHT22;4786;51.270;4.456;2022-07-23T13:50:26;29.90;84.80
9497;DHT22;4786;51.270;4.456;2022-07-23T13:52:52;30.00;84.40
9497;DHT22;4786;51.270;4.456;2022-07-23T13:55:18;30.00;85.50
9497;DHT22;4786;51.270;4.456;2022-07-23T13:57:44;29.90;83.80
9497;DHT22;4786;51.270;4.456;2022-07-23T14:00:11;29.70;85.60
9497;DHT22;4786;51.270;4.456;2022-07-23T14:02:39;29.80;85.40
9497;DHT22;4786;51.270;4.456;2022-07-23T14:05:07;29.80;83.90
9497;DHT22;4786;51.270;4.456;2022-07-23T14:07:33;30.00;82.20
9497;DHT22;4786;51.270;4.456;2022-07-23T14:10:00;30.10;85.60
9497;DHT22;4786;51.270;4.456;2022-07-23T14:12:26;30.10;86.00
9497;DHT22;4786;51.270;4.456;2022-07-23T14:14:52;30.30;82.80
9497;DHT22;4786;51.270;4.456;2022-07-23T14:17:18;30.40;85.20
9497;DHT22;4786;51.270;4.456;2022-07-23T14:19:45;30.40;86.40
9497;DHT22;4786;51.270;4.456;2022-07-23T14:22:10;30.50;86.60
9497;DHT22;4786;51.270;4.456;2022-07-23T14:24:36;30.60;87.10
9497;DHT22;4786;51.270;4.456;2022-07-23T14:27:03;30.50;84.10
9497;DHT22;4786;51.270;4.456;2022-07-23T14:29:30;30.60;86.10
9497;DHT22;4786;51.270;4.456;2022-07-23T14:31:56;30.50;87.40
9497;DHT22;4786;51.270;4.456;2022-07-23T14:34:22;30.60;85.50
9497;DHT22;4786;51.270;4.456;2022-07-23T14:36:49;30.50;82.30
9497;DHT22;4786;51.270;4.456;2022-07-23T14:39:14;30.40;82.20
9497;DHT22;4786;51.270;4.456;2022-07-23T14:41:40;30.20;81.50
9497;DHT22;4786;51.270;4.456;2022-07-23T14:44:07;30.30;84.50
9497;DHT22;4786;51.270;4.456;2022-07-23T14:46:33;30.00;79.10
9497;DHT22;4786;51.270;4.456;2022-07-23T14:48:59;29.80;80.30
9497;DHT22;4786;51.270;4.456;2022-07-23T14:51:26;29.80;84.70
9497;DHT22;4786;51.270;4.456;2022-07-23T14:53:52;29.80;82.70
9497;DHT22;4786;51.270;4.456;2022-07-23T14:56:19;29.90;85.10
9497;DHT22;4786;51.270;4.456;2022-07-23T14:58:45;30.00;88.00
9497;DHT22;4786;51.270;4.456;2022-07-23T15:01:11;30.00;86.80
9497;DHT22;4786;51.270;4.456;2022-07-23T15:03:36;29.90;87.40
9497;DHT22;4786;51.270;4.456;2022-07-23T15:06:02;29.80;86.30
9497;DHT22;4786;51.270;4.456;2022-07-23T15:08:28;29.70;84.70
9497;DHT22;4786;51.270;4.456;2022-07-23T15:10:54;29.60;87.20
9497;DHT22;4786;51.270;4.456;2022-07-23T15:13:19;29.50;82.80
9497;DHT22;4786;51.270;4.456;2022-07-23T15:15:45;29.40;84.90
9497;DHT22;4786;51.270;4.456;2022-07-23T15:18:12;29.30;88.80
9497;DHT22;4786;51.270;4.456;2022-07-23T15:20:38;29.20;89.70
9497;DHT22;4786;51.270;4.456;2022-07-23T15:23:05;29.20;92.20
9497;DHT22;4786;51.270;4.456;2022-07-23T15:25:31;29.10;90.20
9497;DHT22;4786;51.270;4.456;2022-07-23T15:27:58;29.10;89.00
9497;DHT22;4786;51.270;4.456;2022-07-23T15:30:25;29.10;86.20
9497;DHT22;4786;51.270;4.456;2022-07-23T15:32:52;29.10;90.50
9497;DHT22;4786;51.270;4.456;2022-07-23T15:35:19;29.10;90.40
9497;DHT22;4786;51.270;4.456;2022-07-23T15:37:45;29.20;90.40
9497;DHT22;4786;51.270;4.456;2022-07-23T15:40:11;29.30;92.80
9497;DHT22;4786;51.270;4.456;2022-07-23T15:42:37;29.30;88.60
9497;DHT22;4786;51.270;4.456;2022-07-23T15:45:04;29.40;84.30
9497;DHT22;4786;51.270;4.456;2022-07-23T15:47:30;29.40;86.10
9497;DHT22;4786;51.270;4.456;2022-07-23T15:49:56;29.10;81.50
9497;DHT22;4786;51.270;4.456;2022-07-23T15:52:22;29.10;85.30
9497;DHT22;4786;51.270;4.456;2022-07-23T15:54:48;29.20;90.70
9497;DHT22;4786;51.270;4.456;2022-07-23T15:57:14;29.20;88.30
9497;DHT22;4786;51.270;4.456;2022-07-23T15:59:40;29.30;90.70
9497;DHT22;4786;51.270;4.456;2022-07-23T16:02:06;29.30;89.20
9497;DHT22;4786;51.270;4.456;2022-07-23T16:04:33;29.30;88.40
9497;DHT22;4786;51.270;4.456;2022-07-23T16:06:59;29.30;89.10
9497;DHT22;4786;51.270;4.456;2022-07-23T16:09:25;29.30;89.60
9497;DHT22;4786;51.270;4.456;2022-07-23T16:11:51;29.30;88.00
9497;DHT22;4786;51.270;4.456;2022-07-23T16:14:18;29.30;86.60
9497;DHT22;4786;51.270;4.456;2022-07-23T16:16:44;29.30;85.70
9497;DHT22;4786;51.270;4.456;2022-07-23T16:19:10;29.20;87.60
9497;DHT22;4786;51.270;4.456;2022-07-23T16:21:36;29.20;89.20
9497;DHT22;4786;51.270;4.456;2022-07-23T16:24:03;29.10;90.50
9497;DHT22;4786;51.270;4.456;2022-07-23T16:26:30;29.10;91.10
9497;DHT22;4786;51.270;4.456;2022-07-23T16:28:55;28.90;91.30
9497;DHT22;4786;51.270;4.456;2022-07-23T16:31:21;28.70;93.10
9497;DHT22;4786;51.270;4.456;2022-07-23T16:33:48;28.50;93.80
9497;DHT22;4786;51.270;4.456;2022-07-23T16:36:14;28.40;92.50
9497;DHT22;4786;51.270;4.456;2022-07-23T16:38:40;28.20;93.50
9497;DHT22;4786;51.270;4.456;2022-07-23T16:41:06;28.00;91.30
9497;DHT22;4786;51.270;4.456;2022-07-23T16:43:33;27.90;91.50
9497;DHT22;4786;51.270;4.456;2022-07-23T16:45:59;27.80;93.60
9497;DHT22;4786;51.270;4.456;2022-07-23T16:48:25;27.70;92.90
9497;DHT22;4786;51.270;4.456;2022-07-23T16:50:52;27.70;94.50
9497;DHT22;4786;51.270;4.456;2022-07-23T16:53:18;27.70;97.20
9497;DHT22;4786;51.270;4.456;2022-07-23T16:55:44;27.60;95.10
9497;DHT22;4786;51.270;4.456;2022-07-23T16:58:10;27.70;94.90
9497;DHT22;4786;51.270;4.456;2022-07-23T17:00:36;27.70;97.10
9497;DHT22;4786;51.270;4.456;2022-07-23T17:03:02;27.70;95.80
9497;DHT22;4786;51.270;4.456;2022-07-23T17:05:28;27.70;95.30
9497;DHT22;4786;51.270;4.456;2022-07-23T17:07:55;27.80;96.00
9497;DHT22;4786;51.270;4.456;2022-07-23T17:10:21;27.90;96.40
9497;DHT22;4786;51.270;4.456;2022-07-23T17:12:48;27.80;95.50
9497;DHT22;4786;51.270;4.456;2022-07-23T17:15:16;27.80;94.60
9497;DHT22;4786;51.270;4.456;2022-07-23T17:17:42;27.80;96.00